Time;durP1;ratioP1;P1;durP2;ratioP2;P2;SDS_P1;SDS_P2;PMS_P1;PMS_P2;Temp;Humidity;BMP_temperature;BMP_pressure;BME280_temperature;BME280_humidity;BME280_pressure;Samples;Min_cycle;Max_cycle;Signal;HPM_P1;HPM_P2
2023/03/03 00:01:01;;;;;;;4.28;2.55;;;14.80;61.40;;;;;;10488905;28;20103;-56
2023/03/03 00:06:04;;;;;;;3.95;2.25;;;14.70;61.40;;;;;;10489158;28;20098;-57
2023/03/03 00:11:06;;;;;;;4.22;2.65;;;14.70;61.40;;;;;;10481958;28;20113;-57
2023/03/03 00:16:36;;;;;;;3.63;2.60;;;14.70;61.30;;;;;;10488560;28;20024;-57
2023/03/03 00:21:43;;;;;;;6.13;2.97;;;14.70;61.40;;;;;;10489435;28;20039;-56
2023/03/03 00:26:56;;;;;;;3.40;2.53;;;14.70;61.30;;;;;;10487796;28;20522;-57
2023/03/03 00:32:41;;;;;;;4.00;2.47;;;14.70;61.30;;;;;;10488124;28;20395;-56
2023/03/03 00:37:41;;;;;;;4.47;2.42;;;14.70;61.30;;;;;;10488922;28;20036;-56
2023/03/03 00:42:50;;;;;;;5.10;2.50;;;14.60;61.30;;;;;;10474416;28;20017;-57
2023/03/03 00:47:51;;;;;;;4.13;2.92;;;14.60;61.30;;;;;;10487282;28;20029;-56
2023/03/03 00:53:11;;;;;;;5.63;2.70;;;14.60;61.30;;;;;;10487361;28;20589;-57
2023/03/03 00:58:13;;;;;;;4.63;2.58;;;14.60;61.30;;;;;;10487246;28;20020;-57
2023/03/03 01:03:18;;;;;;;4.00;2.67;;;14.60;61.30;;;;;;10487361;28;20025;-57
2023/03/03 01:08:21;;;;;;;4.40;2.78;;;14.60;61.30;;;;;;10486161;28;20067;-57
2023/03/03 01:13:26;;;;;;;3.75;2.38;;;14.50;61.20;;;;;;10486715;28;20104;-56
2023/03/03 01:18:28;;;;;;;4.60;2.42;;;14.50;61.20;;;;;;10486611;28;20020;-57
2023/03/03 01:23:29;;;;;;;3.45;2.25;;;14.50;61.20;;;;;;10486730;28;20063;-56
2023/03/03 01:28:29;;;;;;;3.85;2.60;;;14.50;61.10;;;;;;10487635;28;20123;-56
2023/03/03 01:33:31;;;;;;;4.20;2.33;;;14.50;61.20;;;;;;10487699;28;20491;-57
2023/03/03 01:38:35;;;;;;;3.47;2.65;;;14.50;61.20;;;;;;10486130;28;20048;-56
2023/03/03 01:43:44;;;;;;;4.65;2.65;;;14.50;61.20;;;;;;10486018;28;20423;-57
2023/03/03 01:48:45;;;;;;;3.63;2.17;;;14.40;61.20;;;;;;10478521;28;20078;-56
2023/03/03 01:53:52;;;;;;;4.88;2.55;;;14.50;61.30;;;;;;10497376;28;20104;-56
2023/03/03 01:59:22;;;;;;;3.80;2.38;;;14.40;61.20;;;;;;10469214;28;20021;-57
2023/03/03 02:04:25;;;;;;;3.30;2.28;;;14.40;61.20;;;;;;10478357;28;20044;-57
2023/03/03 02:09:53;;;;;;;3.40;2.30;;;14.40;61.80;;;;;;10486944;28;20060;-55
2023/03/03 02:14:53;;;;;;;3.50;2.22;;;14.40;61.20;;;;;;10485421;28;20100;-57
2023/03/03 02:20:19;;;;;;;3.33;1.90;;;14.40;61.10;;;;;;10488127;28;20519;-55
2023/03/03 02:25:55;;;;;;;3.33;2.45;;;14.40;61.10;;;;;;10492969;28;20025;-56
2023/03/03 02:30:58;;;;;;;4.35;2.63;;;14.40;61.10;;;;;;10486937;28;20040;-56
2023/03/03 02:35:59;;;;;;;3.90;3.00;;;14.40;61.10;;;;;;10494039;28;20024;-55
2023/03/03 02:41:30;;;;;;;3.35;2.20;;;14.30;61.00;;;;;;10493350;28;20016;-56
2023/03/03 02:46:35;;;;;;;3.75;1.98;;;14.30;61.10;;;;;;10493635;28;20040;-56
2023/03/03 02:51:36;;;;;;;4.07;2.05;;;14.30;61.10;;;;;;10491937;28;20644;-56
2023/03/03 02:56:37;;;;;;;3.95;2.95;;;14.30;61.10;;;;;;10493148;28;20391;-55
2023/03/03 03:01:38;;;;;;;4.10;2.70;;;14.30;61.10;;;;;;10491680;28;20035;-56
2023/03/03 03:06:40;;;;;;;5.22;2.75;;;14.30;61.70;;;;;;10491128;28;20190;-56
2023/03/03 03:11:41;;;;;;;5.47;3.03;;;14.30;61.10;;;;;;10491520;28;20151;-57
2023/03/03 03:16:42;;;;;;;3.90;2.20;;;14.30;61.10;;;;;;10491458;28;20055;-56
2023/03/03 03:21:43;;;;;;;3.85;3.03;;;14.30;61.10;;;;;;10492231;28;20098;-56
2023/03/03 03:26:43;;;;;;;3.83;2.83;;;14.20;61.10;;;;;;10492131;28;20182;-57
2023/03/03 03:31:44;;;;;;;3.22;2.33;;;14.20;61.10;;;;;;10489898;28;20088;-57
2023/03/03 03:36:45;;;;;;;3.88;2.60;;;14.20;61.10;;;;;;10490148;28;20455;-56
2023/03/03 03:41:46;;;;;;;4.53;2.42;;;14.20;61.00;;;;;;10491542;28;20124;-56
2023/03/03 03:46:47;;;;;;;3.38;2.20;;;14.30;60.50;;;;;;10491035;28;20028;-56
2023/03/03 03:51:47;;;;;;;3.70;2.40;;;14.50;59.70;;;;;;10489508;28;20101;-56
2023/03/03 03:56:48;;;;;;;4.70;2.95;;;14.70;59.00;;;;;;10506181;28;20131;-56
2023/03/03 04:01:49;;;;;;;6.00;2.67;;;14.90;58.30;;;;;;10485869;28;20464;-56
2023/03/03 04:06:49;;;;;;;4.15;2.20;;;15.10;57.80;;;;;;10489831;28;20044;-56
2023/03/03 04:11:50;;;;;;;4.15;2.42;;;15.30;57.40;;;;;;10490141;28;20055;-57
2023/03/03 04:16:51;;;;;;;4.13;2.40;;;15.40;56.90;;;;;;10489665;28;20529;-57
2023/03/03 04:21:51;;;;;;;4.28;2.20;;;15.60;56.50;;;;;;10489625;28;20048;-56
2023/03/03 04:26:53;;;;;;;3.92;2.10;;;15.70;56.10;;;;;;10488075;28;20039;-57
2023/03/03 04:31:54;;;;;;;4.30;1.67;;;15.90;55.60;;;;;;10488220;28;20034;-57
2023/03/03 04:36:54;;;;;;;4.30;2.67;;;16.10;55.10;;;;;;10487812;28;20162;-56
2023/03/03 04:41:55;;;;;;;3.30;2.08;;;16.30;54.80;;;;;;10504387;28;20017;-57
2023/03/03 04:46:56;;;;;;;4.18;2.25;;;16.40;54.60;;;;;;10487708;28;20613;-56
2023/03/03 04:51:57;;;;;;;3.80;1.80;;;16.40;54.50;;;;;;10475247;28;20728;-56
2023/03/03 04:56:58;;;;;;;3.30;2.10;;;16.50;54.40;;;;;;10486902;28;20082;-57
2023/03/03 05:01:59;;;;;;;3.88;2.15;;;16.50;54.20;;;;;;10488186;28;20017;-57
2023/03/03 05:06:59;;;;;;;4.63;2.35;;;16.50;54.20;;;;;;10486605;28;20076;-56
2023/03/03 05:12:00;;;;;;;3.47;1.70;;;16.60;54.20;;;;;;10486560;28;20021;-56
2023/03/03 05:17:03;;;;;;;3.60;2.05;;;16.60;54.10;;;;;;10477410;28;20021;-56
2023/03/03 05:22:04;;;;;;;4.00;1.67;;;16.60;54.00;;;;;;10488182;28;20039;-57
2023/03/03 05:27:04;;;;;;;3.22;2.00;;;16.70;54.10;;;;;;10486277;28;20035;-57
2023/03/03 05:32:05;;;;;;;3.45;2.25;;;16.70;53.90;;;;;;10486346;28;20082;-56
2023/03/03 05:37:06;;;;;;;3.10;1.50;;;16.80;53.90;;;;;;10483153;28;20483;-56
2023/03/03 05:42:07;;;;;;;5.55;2.38;;;16.80;54.00;;;;;;10482385;28;20021;-54
2023/03/03 05:47:09;;;;;;;8.70;3.05;;;16.80;54.70;;;;;;10482034;28;20554;-51
2023/03/03 05:52:09;;;;;;;5.47;2.90;;;16.90;54.50;;;;;;10481770;28;20021;-56
2023/03/03 05:57:10;;;;;;;8.32;3.88;;;17.00;54.80;;;;;;10481841;28;20048;-55
2023/03/03 06:02:11;;;;;;;7.40;4.00;;;17.10;56.30;;;;;;10495092;28;20062;-54
2023/03/03 06:07:11;;;;;;;12.40;4.60;;;17.30;55.90;;;;;;10486428;28;20690;-57
2023/03/03 06:12:12;;;;;;;14.00;5.47;;;17.30;56.80;;;;;;10493912;28;20111;-57
2023/03/03 06:17:13;;;;;;;10.88;4.90;;;17.50;56.70;;;;;;10494581;28;20096;-59
2023/03/03 06:22:14;;;;;;;12.10;4.97;;;17.60;57.80;;;;;;10492919;28;20099;-57
2023/03/03 06:27:14;;;;;;;13.60;5.32;;;17.50;57.50;;;;;;10492489;28;20450;-57
2023/03/03 06:32:15;;;;;;;13.50;4.70;;;17.50;57.30;;;;;;10490354;28;20012;-57
2023/03/03 06:37:16;;;;;;;13.57;5.03;;;17.50;57.60;;;;;;10490602;28;20102;-57
2023/03/03 06:42:18;;;;;;;13.70;5.45;;;17.50;57.10;;;;;;10497898;28;20024;-56
2023/03/03 06:47:18;;;;;;;14.48;4.80;;;17.50;58.00;;;;;;10489797;28;20028;-55
2023/03/03 06:52:26;;;;;;;17.25;5.15;;;17.50;57.60;;;;;;10474539;28;20573;-54
2023/03/03 06:57:32;;;;;;;24.15;5.72;;;17.30;58.20;;;;;;10492792;28;20024;-58
2023/03/03 07:02:33;;;;;;;35.97;7.43;;;17.60;58.60;;;;;;10491068;28;20094;-56
2023/03/03 07:07:33;;;;;;;28.55;7.97;;;17.60;58.50;;;;;;10487994;28;20189;-58
2023/03/03 07:12:34;;;;;;;25.25;5.72;;;17.70;58.40;;;;;;10488625;28;20108;-57
2023/03/03 07:17:41;;;;;;;22.67;7.00;;;17.50;58.60;;;;;;10457807;28;20021;-58
2023/03/03 07:22:41;;;;;;;31.25;5.68;;;17.60;57.00;;;;;;10451784;28;20586;-57
2023/03/03 07:27:42;;;;;;;19.50;4.65;;;17.70;56.70;;;;;;10476699;28;20116;-58
2023/03/03 07:32:45;;;;;;;15.95;3.85;;;17.70;56.40;;;;;;10459551;28;20361;-57
2023/03/03 07:37:46;;;;;;;14.18;4.25;;;17.60;56.60;;;;;;10475714;28;20020;-58
2023/03/03 07:42:47;;;;;;;20.95;4.07;;;17.60;56.30;;;;;;10486307;28;20016;-56
2023/03/03 07:47:47;;;;;;;13.90;3.65;;;17.70;56.10;;;;;;10490154;28;20051;-54
2023/03/03 07:53:00;;;;;;;22.73;4.47;;;17.80;56.60;;;;;;10473119;28;20016;-54
2023/03/03 07:58:26;;;;;;;20.67;3.67;;;17.80;56.80;;;;;;10489301;28;20029;-56
2023/03/03 08:03:27;;;;;;;12.27;2.92;;;17.80;56.60;;;;;;10472494;28;20170;-56
2023/03/03 08:08:35;;;;;;;11.13;2.80;;;17.80;56.60;;;;;;10484819;28;20110;-55
2023/03/03 08:13:40;;;;;;;11.18;2.97;;;17.80;56.30;;;;;;10482598;28;20016;-58
2023/03/03 08:18:47;;;;;;;8.75;2.70;;;17.80;56.10;;;;;;10478994;28;20028;-56
2023/03/03 08:23:50;;;;;;;21.73;4.45;;;17.80;56.10;;;;;;10488016;28;20013;-56
2023/03/03 08:28:52;;;;;;;22.25;5.07;;;17.90;56.30;;;;;;10485334;28;20035;-54
2023/03/03 08:33:53;;;;;;;24.52;3.90;;;17.90;55.90;;;;;;10483957;28;20656;-56
2023/03/03 08:38:54;;;;;;;16.17;2.67;;;17.90;56.80;;;;;;10485102;28;20020;-55
2023/03/03 08:43:55;;;;;;;14.20;2.83;;;17.90;57.20;;;;;;10484285;28;20032;-58
2023/03/03 08:48:55;;;;;;;10.23;2.80;;;17.90;56.80;;;;;;10486193;28;20667;-58
2023/03/03 08:53:56;;;;;;;9.63;1.85;;;18.00;55.90;;;;;;10497685;28;20104;-57
2023/03/03 08:58:57;;;;;;;9.43;2.35;;;17.90;55.90;;;;;;10486401;28;20104;-61
2023/03/03 09:03:58;;;;;;;15.05;3.38;;;18.00;55.90;;;;;;10468075;28;20190;-57
2023/03/03 09:08:58;;;;;;;13.43;3.83;;;18.00;55.90;;;;;;10484266;28;20040;-58
2023/03/03 09:14:11;;;;;;;11.20;2.80;;;18.10;55.50;;;;;;10483259;28;20112;-59
2023/03/03 09:19:35;;;;;;;13.10;3.08;;;18.10;55.50;;;;;;10488739;28;20055;-59
2023/03/03 09:24:36;;;;;;;6.65;2.53;;;18.00;55.60;;;;;;10484017;28;20123;-58
2023/03/03 09:29:37;;;;;;;8.10;2.70;;;18.10;55.50;;;;;;10481305;28;20039;-58
2023/03/03 09:34:41;;;;;;;9.15;2.05;;;18.10;55.40;;;;;;10480992;28;20545;-59
2023/03/03 09:39:43;;;;;;;11.93;1.90;;;18.20;55.50;;;;;;10476695;28;20063;-58
2023/03/03 09:45:20;;;;;;;9.80;2.22;;;18.00;56.10;;;;;;10484792;28;20035;-58
2023/03/03 09:50:54;;;;;;;5.95;1.73;;;17.80;56.30;;;;;;10472313;28;20361;-58
2023/03/03 09:56:06;;;;;;;7.10;1.77;;;17.80;56.40;;;;;;10486656;28;20022;-58
2023/03/03 10:01:34;;;;;;;5.78;1.95;;;17.90;55.90;;;;;;10486530;28;20032;-58
2023/03/03 10:06:52;;;;;;;5.65;1.27;;;17.90;55.90;;;;;;10484933;28;20641;-58
2023/03/03 10:12:29;;;;;;;6.80;1.75;;;17.90;56.80;;;;;;10478496;28;20021;-58
2023/03/03 10:17:52;;;;;;;4.00;1.35;;;17.70;57.60;;;;;;10475090;28;20059;-59
2023/03/03 10:23:19;;;;;;;4.15;1.02;;;17.70;57.70;;;;;;10472803;28;20166;-57
2023/03/03 10:28:52;;;;;;;3.28;1.00;;;17.80;57.30;;;;;;10485924;28;20467;-58
2023/03/03 10:34:39;;;;;;;5.18;1.75;;;17.70;57.40;;;;;;10475535;28;20047;-57
2023/03/03 10:40:22;;;;;;;5.78;1.40;;;17.90;56.90;;;;;;10483894;28;20025;-57
2023/03/03 10:45:58;;;;;;;4.50;1.15;;;18.10;56.90;;;;;;10463388;28;20036;-56
2023/03/03 10:51:35;;;;;;;6.60;1.08;;;17.80;57.60;;;;;;10486524;28;20069;-57
2023/03/03 10:56:56;;;;;;;4.78;1.95;;;17.80;57.90;;;;;;10490882;28;20025;-63
2023/03/03 11:01:57;;;;;;;6.78;0.90;;;17.80;58.10;;;;;;10479051;28;20077;-58
2023/03/03 11:07:05;;;;;;;3.75;1.10;;;17.70;58.60;;;;;;10480793;28;20049;-60
2023/03/03 11:12:36;;;;;;;3.20;1.08;;;17.60;58.90;;;;;;10502351;28;20103;-58
2023/03/03 11:17:41;;;;;;;3.03;1.10;;;17.60;59.20;;;;;;10487808;28;20031;-56
2023/03/03 11:22:55;;;;;;;3.47;1.08;;;17.60;59.30;;;;;;10476892;28;20045;-58
2023/03/03 11:28:16;;;;;;;4.88;0.82;;;17.60;59.30;;;;;;10488754;28;20391;-58
2023/03/03 11:33:34;;;;;;;5.68;1.38;;;17.60;59.60;;;;;;10476797;28;20020;-58
2023/03/03 11:38:53;;;;;;;2.78;0.80;;;17.50;59.80;;;;;;10489597;28;20020;-56
2023/03/03 11:44:14;;;;;;;4.18;0.90;;;17.50;59.90;;;;;;10482193;28;20029;-58
2023/03/03 11:49:38;;;;;;;2.50;0.88;;;17.40;60.20;;;;;;10477225;28;20033;-56
2023/03/03 11:54:55;;;;;;;2.72;1.10;;;17.40;60.20;;;;;;10491267;28;20070;-58
2023/03/03 12:00:14;;;;;;;6.07;1.38;;;17.40;60.50;;;;;;10468586;28;20472;-56
2023/03/03 12:05:33;;;;;;;3.75;1.10;;;17.40;60.60;;;;;;10485929;28;20186;-56
2023/03/03 12:10:41;;;;;;;9.57;1.63;;;17.40;60.80;;;;;;10488061;28;20040;-58
2023/03/03 12:16:23;;;;;;;2.38;0.63;;;17.40;61.10;;;;;;10485508;28;20016;-56
2023/03/03 12:22:12;;;;;;;5.05;0.88;;;17.30;60.90;;;;;;10493136;28;20106;-57
2023/03/03 12:27:44;;;;;;;6.30;1.25;;;17.30;61.20;;;;;;10482818;28;20029;-56
2023/03/03 12:33:33;;;;;;;2.53;0.98;;;17.40;61.00;;;;;;10485771;28;20270;-59
2023/03/03 12:38:57;;;;;;;4.82;1.55;;;17.20;61.20;;;;;;10481539;28;20033;-57
2023/03/03 12:44:07;;;;;;;7.53;1.48;;;17.20;61.10;;;;;;10484891;28;20531;-50
2023/03/03 12:49:07;;;;;;;;;;;17.10;61.80;;;;;;10484006;28;20339;-55
2023/03/03 12:54:20;;;;;;;7.40;1.50;;;17.10;61.70;;;;;;10467706;28;19950;-57
2023/03/03 13:00:15;;;;;;;7.95;1.30;;;17.10;61.50;;;;;;10484823;28;20013;-57
2023/03/03 13:05:59;;;;;;;6.53;1.45;;;17.10;61.40;;;;;;10492740;28;20128;-56
2023/03/03 13:11:40;;;;;;;7.28;1.10;;;17.00;61.40;;;;;;10481506;28;20040;-56
2023/03/03 13:17:03;;;;;;;6.93;1.08;;;17.00;61.30;;;;;;10484233;28;20024;-57
2023/03/03 13:22:23;;;;;;;5.70;1.30;;;17.00;61.20;;;;;;10454583;28;20040;-56
2023/03/03 13:27:31;;;;;;;4.90;1.30;;;17.10;60.90;;;;;;10467799;28;20036;-56
2023/03/03 13:33:00;;;;;;;11.93;2.00;;;17.10;61.30;;;;;;10483505;28;20506;-56
2023/03/03 13:38:02;;;;;;;19.00;3.33;;;17.00;61.80;;;;;;10496442;28;20048;-55
2023/03/03 13:43:25;;;;;;;15.90;2.83;;;16.90;61.80;;;;;;10483226;28;20039;-56
2023/03/03 13:49:09;;;;;;;15.98;2.78;;;16.90;61.40;;;;;;10464401;28;20033;-56
2023/03/03 13:54:31;;;;;;;11.50;2.05;;;16.70;60.40;;;;;;10477309;28;20040;-55
2023/03/03 14:00:10;;;;;;;25.60;2.38;;;16.60;60.10;;;;;;10484332;28;20150;-56
2023/03/03 14:05:27;;;;;;;8.50;2.72;;;16.60;59.70;;;;;;10478395;28;20045;-56
2023/03/03 14:11:28;;;;;;;5.30;1.98;;;16.60;59.60;;;;;;10471102;28;20043;-56
2023/03/03 14:16:55;;;;;;;14.02;2.20;;;16.70;59.60;;;;;;10486419;28;20036;-55
2023/03/03 14:22:22;;;;;;;22.20;4.13;;;16.70;59.50;;;;;;10481768;28;20492;-56
2023/03/03 14:27:32;;;;;;;30.92;6.15;;;16.60;59.10;;;;;;10492033;28;20032;-56
2023/03/03 14:32:33;;;;;;;45.97;7.63;;;16.70;60.10;;;;;;10491886;28;20059;-55
2023/03/03 14:37:45;;;;;;;57.45;8.13;;;16.70;58.70;;;;;;10484564;28;20031;-56
2023/03/03 14:42:52;;;;;;;39.15;6.57;;;16.60;60.00;;;;;;10487913;28;20031;-55
2023/03/03 14:47:53;;;;;;;47.20;7.22;;;16.60;60.10;;;;;;10476820;28;20065;-55
2023/03/03 14:53:30;;;;;;;41.92;6.32;;;16.60;60.40;;;;;;10478187;28;20017;-58
2023/03/03 14:58:38;;;;;;;41.50;7.53;;;16.70;60.50;;;;;;10489702;28;20055;-57
2023/03/03 15:04:09;;;;;;;32.45;7.05;;;16.70;60.80;;;;;;10478442;28;20016;-55
2023/03/03 15:09:40;;;;;;;44.85;7.13;;;16.70;61.10;;;;;;10490362;28;20044;-55
2023/03/03 15:14:46;;;;;;;53.17;7.90;;;16.70;61.80;;;;;;10483393;28;20029;-55
2023/03/03 15:20:23;;;;;;;31.20;7.60;;;16.70;61.60;;;;;;10478421;28;20021;-55
2023/03/03 15:26:00;;;;;;;51.00;9.25;;;16.80;61.80;;;;;;10448959;28;20025;-54
2023/03/03 15:31:36;;;;;;;44.97;9.68;;;16.90;62.00;;;;;;10437911;28;20512;-57
2023/03/03 15:36:58;;;;;;;54.25;8.13;;;17.20;61.00;;;;;;10448141;28;20540;-56
2023/03/03 15:42:14;;;;;;;32.63;8.93;;;17.00;61.80;;;;;;10447122;28;20017;-56
2023/03/03 15:47:49;;;;;;;44.85;9.18;;;16.90;62.40;;;;;;10442188;28;20025;-55
2023/03/03 15:53:27;;;;;;;23.83;6.07;;;16.90;62.10;;;;;;10442376;28;20032;-54
2023/03/03 15:58:44;;;;;;;62.83;9.27;;;16.80;62.40;;;;;;10443736;28;20056;-57
2023/03/03 16:03:54;;;;;;;39.47;7.38;;;16.80;63.60;;;;;;10434975;28;20029;-54
2023/03/03 16:09:05;;;;;;;28.45;5.40;;;16.80;62.90;;;;;;10450479;28;20564;-55
2023/03/03 16:14:37;;;;;;;22.40;6.40;;;16.70;63.10;;;;;;10428561;28;20064;-55
2023/03/03 16:19:57;;;;;;;24.63;5.15;;;16.70;62.60;;;;;;10445608;28;20079;-57
2023/03/03 16:25:20;;;;;;;14.23;4.35;;;16.60;61.90;;;;;;10479481;28;20083;-55
2023/03/03 16:31:02;;;;;;;22.23;3.85;;;16.60;61.20;;;;;;10489915;28;20182;-55
2023/03/03 16:36:17;;;;;;;15.45;4.35;;;16.70;60.70;;;;;;10478044;28;20628;-55
2023/03/03 16:41:42;;;;;;;21.85;5.50;;;16.90;60.30;;;;;;10479409;28;20119;-55
2023/03/03 16:46:46;;;;;;;22.40;4.85;;;17.00;59.70;;;;;;10480036;28;20078;-56
2023/03/03 16:52:09;;;;;;;10.40;4.30;;;17.00;59.70;;;;;;10460261;28;20430;-55
2023/03/03 16:57:13;;;;;;;19.55;3.10;;;17.10;59.70;;;;;;10459696;28;20089;-54
2023/03/03 17:02:31;;;;;;;14.43;3.80;;;17.20;57.70;;;;;;10468239;28;20025;-55
2023/03/03 17:07:48;;;;;;;13.60;3.70;;;17.80;57.70;;;;;;10463758;28;20076;-54
2023/03/03 17:13:23;;;;;;;7.70;1.88;;;18.00;59.00;;;;;;10485340;28;20061;-53
2023/03/03 17:18:42;;;;;;;12.43;2.28;;;18.20;57.90;;;;;;10487697;28;20024;-53
2023/03/03 17:24:29;;;;;;;13.13;2.83;;;18.10;57.80;;;;;;10477764;28;20040;-52
2023/03/03 17:29:58;;;;;;;22.30;3.25;;;18.00;58.40;;;;;;10481371;28;20058;-54
2023/03/03 17:35:32;;;;;;;18.25;3.50;;;18.00;58.60;;;;;;10484818;28;20041;-51
2023/03/03 17:40:51;;;;;;;17.70;3.20;;;18.00;58.90;;;;;;10484733;28;20078;-54
2023/03/03 17:45:57;;;;;;;18.13;3.17;;;18.00;59.10;;;;;;10487019;28;20435;-53
2023/03/03 17:51:35;;;;;;;16.83;3.28;;;17.80;59.40;;;;;;10486925;28;20301;-54
2023/03/03 17:57:03;;;;;;;14.45;4.03;;;17.70;59.50;;;;;;10494398;28;20082;-54
2023/03/03 18:02:35;;;;;;;7.03;3.25;;;17.80;59.00;;;;;;10493854;28;20495;-53
2023/03/03 18:08:03;;;;;;;9.93;3.28;;;17.70;58.60;;;;;;10478864;28;20033;-53
2023/03/03 18:13:23;;;;;;;8.75;2.75;;;17.70;58.60;;;;;;10489830;28;20024;-54
2023/03/03 18:18:38;;;;;;;7.57;3.10;;;17.80;58.40;;;;;;10489061;28;20017;-54
2023/03/03 18:23:48;;;;;;;9.52;3.17;;;17.70;58.30;;;;;;10459698;28;20072;-54
2023/03/03 18:28:50;;;;;;;6.80;3.40;;;17.70;58.10;;;;;;10448201;28;20069;-55
2023/03/03 18:34:08;;;;;;;10.73;3.10;;;17.70;58.10;;;;;;10450638;28;20044;-55
2023/03/03 18:39:13;;;;;;;6.15;2.60;;;17.80;58.00;;;;;;10447294;28;20032;-55
2023/03/03 18:44:30;;;;;;;4.85;2.58;;;17.80;58.10;;;;;;10450651;28;20495;-55
2023/03/03 18:49:51;;;;;;;12.20;2.40;;;17.90;58.10;;;;;;10444668;28;20423;-53
2023/03/03 18:55:22;;;;;;;5.63;3.10;;;17.80;58.50;;;;;;10449491;28;20021;-54
2023/03/03 19:00:29;;;;;;;5.78;2.80;;;18.00;58.30;;;;;;10432785;28;20210;-55
2023/03/03 19:05:48;;;;;;;11.35;3.53;;;18.10;57.90;;;;;;10438466;28;20052;-55
2023/03/03 19:10:53;;;;;;;5.75;2.72;;;18.10;58.10;;;;;;10438890;28;20113;-55
2023/03/03 19:15:58;;;;;;;3.78;2.78;;;18.20;57.60;;;;;;10450963;28;20028;-55
2023/03/03 19:21:03;;;;;;;5.38;2.92;;;18.30;58.30;;;;;;10445443;28;20453;-54
2023/03/03 19:26:29;;;;;;;5.68;2.55;;;18.30;59.20;;;;;;10443505;28;20025;-55
2023/03/03 19:32:09;;;;;;;15.30;4.15;;;18.50;58.50;;;;;;10446743;28;20040;-53
2023/03/03 19:38:06;;;;;;;7.28;3.88;;;18.00;59.40;;;;;;10445913;28;20017;-53
2023/03/03 19:43:44;;;;;;;6.38;2.15;;;17.70;60.80;;;;;;10441978;28;20013;-54
2023/03/03 19:49:40;;;;;;;5.20;2.22;;;17.60;60.80;;;;;;10434051;28;20069;-55
2023/03/03 19:55:24;;;;;;;3.97;2.00;;;17.60;60.00;;;;;;10445680;28;20325;-55
2023/03/03 20:00:46;;;;;;;5.35;2.08;;;17.60;59.70;;;;;;10443677;28;20017;-55
2023/03/03 20:06:12;;;;;;;8.60;3.35;;;17.70;59.50;;;;;;10444334;28;20055;-54
2023/03/03 20:12:09;;;;;;;4.45;2.10;;;17.70;59.10;;;;;;10446963;28;20666;-54
2023/03/03 20:18:01;;;;;;;4.82;1.90;;;17.70;58.90;;;;;;10436435;28;20052;-54
2023/03/03 20:23:05;;;;;;;4.70;1.80;;;17.70;58.90;;;;;;10447593;28;20053;-54
2023/03/03 20:28:57;;;;;;;4.57;1.63;;;17.60;59.10;;;;;;10446770;28;20025;-55
2023/03/03 20:34:25;;;;;;;4.07;1.95;;;17.60;59.00;;;;;;10444050;28;20052;-54
2023/03/03 20:40:14;;;;;;;6.65;3.50;;;17.50;59.30;;;;;;10444223;28;20028;-54
2023/03/03 20:45:44;;;;;;;4.88;1.60;;;17.40;59.40;;;;;;10439618;28;20451;-54
2023/03/03 20:51:31;;;;;;;3.38;2.22;;;17.30;59.50;;;;;;10426634;28;20128;-54
2023/03/03 20:57:01;;;;;;;5.00;1.73;;;17.20;59.50;;;;;;10429669;28;20407;-55
2023/03/03 21:02:24;;;;;;;4.47;1.77;;;17.10;59.90;;;;;;10445996;28;20017;-54
2023/03/03 21:07:25;;;;;;;4.38;1.40;;;17.00;60.70;;;;;;10445085;28;20053;-54
2023/03/03 21:12:29;;;;;;;4.05;1.38;;;16.90;60.40;;;;;;10447036;28;20017;-55
2023/03/03 21:17:30;;;;;;;2.83;1.30;;;16.90;60.50;;;;;;10447031;28;20029;-55
2023/03/03 21:22:32;;;;;;;3.50;1.35;;;16.80;60.60;;;;;;10446179;28;20024;-55
2023/03/03 21:27:35;;;;;;;2.67;1.33;;;16.70;60.60;;;;;;10444737;28;20036;-55
2023/03/03 21:32:46;;;;;;;4.22;1.50;;;16.70;60.70;;;;;;10428101;28;20024;-54
2023/03/03 21:37:54;;;;;;;5.13;1.33;;;16.60;60.80;;;;;;10445833;28;20804;-54
2023/03/03 21:42:59;;;;;;;2.50;1.30;;;16.60;60.90;;;;;;10446052;28;20377;-55
2023/03/03 21:48:02;;;;;;;3.72;1.73;;;16.60;61.00;;;;;;10443839;28;20027;-54
2023/03/03 21:53:03;;;;;;;2.60;1.40;;;16.50;61.10;;;;;;10448613;28;20602;-55
2023/03/03 21:58:03;;;;;;;3.25;1.50;;;16.50;61.20;;;;;;10427800;28;20025;-55
2023/03/03 22:03:04;;;;;;;5.07;1.48;;;16.40;61.30;;;;;;10445539;28;20044;-54
2023/03/03 22:08:05;;;;;;;5.20;1.95;;;16.40;61.40;;;;;;10445173;28;20056;-55
2023/03/03 22:13:06;;;;;;;3.17;1.17;;;16.30;61.30;;;;;;10443958;28;20024;-55
2023/03/03 22:18:06;;;;;;;5.15;2.40;;;16.30;61.30;;;;;;10445751;28;20612;-54
2023/03/03 22:23:07;;;;;;;3.75;1.80;;;16.20;61.50;;;;;;10444716;28;20134;-53
2023/03/03 22:28:08;;;;;;;3.53;1.23;;;16.20;61.60;;;;;;10444643;28;20057;-54
2023/03/03 22:33:09;;;;;;;2.92;1.45;;;16.20;61.40;;;;;;10443918;28;20683;-54
2023/03/03 22:38:09;;;;;;;4.15;1.95;;;16.20;61.30;;;;;;10447597;28;20036;-54
2023/03/03 22:43:10;;;;;;;3.20;1.45;;;16.20;61.30;;;;;;10452225;28;20103;-53
2023/03/03 22:48:11;;;;;;;2.63;1.30;;;16.10;61.50;;;;;;10449529;28;20116;-55
2023/03/03 22:53:12;;;;;;;3.67;1.02;;;16.10;61.50;;;;;;10456394;28;20031;-54
2023/03/03 22:58:13;;;;;;;2.60;1.27;;;16.10;61.50;;;;;;10452076;28;20048;-53
2023/03/03 23:03:14;;;;;;;3.17;1.50;;;16.10;61.50;;;;;;10451455;28;20684;-54
2023/03/03 23:08:17;;;;;;;2.05;1.10;;;16.10;61.60;;;;;;10449997;28;20041;-53
2023/03/03 23:13:18;;;;;;;2.65;0.90;;;16.00;61.50;;;;;;10449952;28;20017;-55
2023/03/03 23:18:18;;;;;;;2.65;1.00;;;16.00;61.50;;;;;;10450856;28;20063;-53
2023/03/03 23:23:19;;;;;;;2.55;1.33;;;16.00;61.50;;;;;;10448993;28;20018;-53
2023/03/03 23:28:20;;;;;;;3.67;1.60;;;16.00;61.60;;;;;;10432998;28;20031;-55
2023/03/03 23:33:21;;;;;;;3.83;1.65;;;15.90;61.50;;;;;;10449041;28;20096;-55
2023/03/03 23:38:21;;;;;;;3.65;1.30;;;15.90;61.60;;;;;;10452316;28;20017;-55
2023/03/03 23:43:22;;;;;;;4.35;1.88;;;15.90;61.50;;;;;;10448618;28;20111;-54
2023/03/03 23:48:23;;;;;;;3.00;0.93;;;15.90;61.50;;;;;;10426926;28;20080;-54
2023/03/03 23:53:23;;;;;;;5.03;2.80;;;15.80;61.50;;;;;;10455763;28;20096;-55
2023/03/03 23:58:24;;;;;;;3.38;1.10;;;15.90;61.50;;;;;;10431636;28;20171;-54
